createdAt,value
2022-10-16T00:05:54.468Z,98821.48
2022-10-16T00:16:22.528Z,98834.38
2022-10-16T00:26:53.094Z,98835.02
2022-10-16T00:37:20.594Z,98833.64
2022-10-16T00:47:50.661Z,98836.34
2022-10-16T00:58:18.385Z,98836.46
2022-10-16T01:08:57.513Z,98840.52
2022-10-16T01:19:36.617Z,98845.43
2022-10-16T01:30:12.071Z,98840.34
2022-10-16T01:40:43.586Z,98842.88
2022-10-16T01:51:14.486Z,98840.33
2022-10-16T02:01:47.534Z,98844.35
2022-10-16T02:12:19.308Z,98860.07
2022-10-16T02:22:49.569Z,98876.70
2022-10-16T02:33:18.693Z,98883.60
2022-10-16T02:43:46.238Z,98886.88
2022-10-16T02:54:14.126Z,98873.23
2022-10-16T03:04:42.072Z,98883.48
2022-10-16T03:15:08.682Z,98891.27
2022-10-16T03:25:36.338Z,98894.60
2022-10-16T03:36:04.032Z,98902.35
2022-10-16T03:46:31.669Z,98902.60
2022-10-16T03:56:59.241Z,98907.60
2022-10-16T04:07:26.982Z,98908.05
2022-10-16T04:17:55.213Z,98909.66
2022-10-16T04:28:21.207Z,98912.35
2022-10-16T04:38:48.910Z,98905.84
2022-10-16T04:49:16.397Z,98913.08
2022-10-16T04:59:43.970Z,98918.20
2022-10-16T05:10:11.857Z,98937.98
2022-10-16T05:20:39.386Z,98941.23
2022-10-16T05:31:10.255Z,98944.56
2022-10-16T05:41:37.819Z,98951.73
2022-10-16T05:52:05.578Z,98967.46
2022-10-16T06:02:33.118Z,98975.96
2022-10-16T06:13:00.712Z,98985.02
2022-10-16T06:23:30.728Z,99003.38
2022-10-16T06:33:59.146Z,99019.70
2022-10-16T06:44:26.863Z,99035.36
2022-10-16T06:54:54.641Z,99035.71
2022-10-16T07:05:20.712Z,99039.84
2022-10-16T07:15:48.390Z,99042.55
2022-10-16T07:26:16.933Z,99056.41
2022-10-16T07:36:44.959Z,99058.21
2022-10-16T07:47:12.835Z,99062.30
2022-10-16T07:57:40.333Z,99069.80
2022-10-16T08:08:08.030Z,99077.56
2022-10-16T08:18:34.077Z,99080.40
2022-10-16T08:29:01.819Z,99077.54
2022-10-16T08:39:27.827Z,99078.10
2022-10-16T08:50:02.997Z,99084.71
2022-10-16T09:00:32.148Z,99093.93
2022-10-16T09:11:06.365Z,99093.27
2022-10-16T09:21:37.876Z,99092.08
2022-10-16T09:32:15.011Z,99101.48
2022-10-16T09:42:43.244Z,99104.67
2022-10-16T09:53:14.909Z,99115.20
2022-10-16T10:03:44.819Z,99114.73
2022-10-16T10:14:22.241Z,99115.52
2022-10-16T10:24:59.306Z,99117.55
2022-10-16T10:35:42.671Z,99120.23
2022-10-16T10:46:18.526Z,99129.32
2022-10-16T10:56:54.411Z,99131.45
2022-10-16T11:07:28.339Z,99120.66
2022-10-16T11:18:00.376Z,99107.65
2022-10-16T11:28:34.915Z,99111.52
2022-10-16T11:39:14.241Z,99111.15
2022-10-16T11:49:44.909Z,99111.66
2022-10-16T12:00:21.360Z,99115.64
2022-10-16T12:10:50.051Z,99110.96
2022-10-16T12:21:20.319Z,99126.23
2022-10-16T12:31:57.273Z,99141.80
2022-10-16T12:42:34.547Z,99146.87
2022-10-16T12:53:03.109Z,99147.50
2022-10-16T13:03:48.918Z,99154.45
2022-10-16T13:14:35.024Z,99158.63
2022-10-16T13:25:17.513Z,99160.11
2022-10-16T13:35:55.626Z,99167.09
2022-10-16T13:46:25.608Z,99164.43
2022-10-16T13:57:03.355Z,99163.10
2022-10-16T14:07:38.862Z,99143.35
2022-10-16T14:18:07.294Z,99163.73
2022-10-16T14:28:35.389Z,99180.95
2022-10-16T14:39:08.851Z,99181.34
2022-10-16T14:49:36.874Z,99188.04
2022-10-16T15:00:04.975Z,99198.77
2022-10-16T15:10:33.725Z,99198.44
2022-10-16T15:21:01.433Z,99199.46
2022-10-16T15:31:29.033Z,99209.86
2022-10-16T15:41:56.602Z,99220.85
2022-10-16T15:52:24.592Z,99226.56
2022-10-16T16:02:56.190Z,99234.63
2022-10-16T16:13:23.717Z,99251.77
2022-10-16T16:23:51.225Z,99258.98
2022-10-16T16:34:19.841Z,99265.45
2022-10-16T16:44:47.373Z,99285.13
2022-10-16T16:55:15.131Z,99301.16
2022-10-16T17:05:42.780Z,99327.02
2022-10-16T17:16:10.923Z,99338.80
2022-10-16T17:26:41.543Z,99342.40
2022-10-16T17:37:10.178Z,99363.69
2022-10-16T17:47:41.898Z,99384.70
2022-10-16T17:58:09.871Z,99386.27
2022-10-16T18:08:38.481Z,99401.30
2022-10-16T18:19:06.581Z,99414.48
2022-10-16T18:29:34.130Z,99418.67
2022-10-16T18:40:01.656Z,99423.73
2022-10-16T18:50:29.273Z,99441.99
2022-10-16T19:00:56.811Z,99449.71
2022-10-16T19:11:23.931Z,99461.06
2022-10-16T19:21:56.428Z,99471.54
2022-10-16T19:32:24.134Z,99477.57
2022-10-16T19:42:50.149Z,99491.45
2022-10-16T19:53:18.031Z,99498.27
2022-10-16T20:03:44.545Z,99503.73
2022-10-16T20:14:12.174Z,99511.85
2022-10-16T20:24:40.622Z,99512.41
2022-10-16T20:35:09.469Z,99521.04
2022-10-16T20:45:37.059Z,99532.96
2022-10-16T20:56:05.322Z,99544.92
2022-10-16T21:06:35.484Z,99553.14
2022-10-16T21:17:03.105Z,99556.97
2022-10-16T21:27:30.699Z,99572.56
2022-10-16T21:37:58.323Z,99587.50
2022-10-16T21:48:26.410Z,99599.61
2022-10-16T21:58:54.050Z,99608.77
2022-10-16T22:09:21.805Z,99615.80
2022-10-16T22:19:48.192Z,99622.98
2022-10-16T22:30:16.108Z,99612.69
2022-10-16T22:40:42.114Z,99612.19
2022-10-16T22:51:15.725Z,99619.17
2022-10-16T23:01:45.081Z,99624.36
2022-10-16T23:12:11.183Z,99630.46
2022-10-16T23:22:38.825Z,99639.39
2022-10-16T23:33:06.518Z,99640.15
2022-10-16T23:43:34.278Z,99641.45
2022-10-16T23:54:01.897Z,99646.15
